Time;durP1;ratioP1;P1;durP2;ratioP2;P2;SDS_P1;SDS_P2;PMS_P1;PMS_P2;Temp;Humidity;BMP_temperature;BMP_pressure;BME280_temperature;BME280_humidity;BME280_pressure;Samples;Min_cycle;Max_cycle;Signal;HPM_P1;HPM_P2
2023/09/19 00:00:22;;;;;;;;;;;;;;;16.66;82.97;96880.28;5073081;28;20040;-67
2023/09/19 00:02:53;;;;;;;0.38;0.38;;;;;;;16.67;83.05;96882.72;5065297;28;19924;-67
2023/09/19 00:05:23;;;;;;;0.45;0.45;;;;;;;16.73;83.09;96878.22;5058761;28;20044;-68
2023/09/19 00:07:54;;;;;;;0.40;0.40;;;;;;;16.68;82.76;96881.66;5069824;28;20089;-68
2023/09/19 00:10:24;;;;;;;0.40;0.40;;;;;;;16.62;82.62;96879.97;5068468;28;20124;-68
2023/09/19 00:12:55;;;;;;;0.40;0.40;;;;;;;16.64;82.75;96894.00;5070812;28;20072;-68
2023/09/19 00:15:23;;;;;;;0.30;0.30;;;;;;;16.66;82.79;96891.06;5072495;28;20385;-68
2023/09/19 00:17:52;;;;;;;0.40;0.40;;;;;;;16.65;82.59;96894.81;5069473;28;20094;-68
2023/09/19 00:20:22;;;;;;;0.52;0.52;;;;;;;16.64;82.42;96885.91;5072875;28;20042;-67
2023/09/19 00:22:50;;;;;;;0.57;0.57;;;;;;;16.65;82.10;96887.56;5065971;28;20124;-67
2023/09/19 00:25:18;;;;;;;0.55;0.55;;;;;;;16.67;81.95;96890.81;5070703;28;20064;-67
2023/09/19 00:27:47;;;;;;;0.50;0.50;;;;;;;16.72;81.44;96892.75;5063752;28;20048;-67
2023/09/19 00:30:19;;;;;;;0.38;0.38;;;;;;;16.71;81.20;96889.25;5068600;28;20140;-67
2023/09/19 00:32:48;;;;;;;0.60;0.60;;;;;;;16.73;81.04;96879.03;5082160;28;20037;-67
2023/09/19 00:35:16;;;;;;;0.40;0.40;;;;;;;16.78;80.72;96880.97;5088201;28;20072;-67
2023/09/19 00:37:44;;;;;;;0.50;0.50;;;;;;;16.79;80.50;96879.91;5068038;28;20393;-68
2023/09/19 00:40:15;;;;;;;0.05;0.05;;;;;;;16.82;80.17;96876.69;5063174;28;20436;-68
2023/09/19 00:42:43;;;;;;;0.35;0.35;;;;;;;16.82;80.11;96869.41;5073511;28;20045;-68
2023/09/19 00:45:12;;;;;;;0.60;0.60;;;;;;;16.82;80.30;96874.00;5065782;28;20052;-69
2023/09/19 00:47:42;;;;;;;0.47;0.47;;;;;;;16.81;80.22;96872.41;5063606;28;20102;-68
2023/09/19 00:50:14;;;;;;;0.45;0.45;;;;;;;16.80;80.21;96879.66;5088844;28;20523;-67
2023/09/19 00:52:43;;;;;;;0.52;0.52;;;;;;;16.81;79.96;96875.09;5069080;28;20064;-68
2023/09/19 00:55:13;;;;;;;0.63;0.63;;;;;;;16.79;80.04;96875.34;5073024;28;20069;-69
2023/09/19 00:57:41;;;;;;;0.60;0.60;;;;;;;16.81;80.11;96877.78;5064316;28;20044;-67
2023/09/19 01:00:15;;;;;;;0.40;0.40;;;;;;;16.78;79.96;96891.75;5058076;28;20037;-68
2023/09/19 01:02:44;;;;;;;0.50;0.50;;;;;;;16.78;80.15;96889.06;5072629;28;20040;-68
2023/09/19 01:05:14;;;;;;;0.50;0.50;;;;;;;16.76;80.30;96888.50;5071221;28;20086;-67
2023/09/19 01:07:44;;;;;;;0.10;0.10;;;;;;;16.75;80.24;96886.88;5059492;28;20475;-67
2023/09/19 01:10:14;;;;;;;0.50;0.50;;;;;;;16.77;79.90;96882.84;5071914;28;20037;-68
2023/09/19 01:12:50;;;;;;;0.30;0.30;;;;;;;16.77;80.01;96874.78;5069418;28;20041;-68
2023/09/19 01:15:25;;;;;;;0.10;0.10;;;;;;;16.72;80.21;96881.97;5059844;28;20461;-69
2023/09/19 01:17:59;;;;;;;0.40;0.40;;;;;;;16.70;80.36;96890.31;5061577;28;20041;-68
2023/09/19 01:20:33;;;;;;;0.73;0.73;;;;;;;16.74;80.17;96886.03;5067919;28;20393;-68
2023/09/19 01:23:06;;;;;;;0.40;0.40;;;;;;;16.66;80.07;96889.19;5063131;28;20049;-69
2023/09/19 01:26:05;;;;;;;0.50;0.50;;;;;;;16.60;80.35;96898.25;5069717;28;20119;-67
2023/09/19 01:28:38;;;;;;;0.30;0.30;;;;;;;16.57;80.55;96887.97;5060008;28;20044;-68
2023/09/19 01:31:10;;;;;;;0.40;0.40;;;;;;;16.56;80.59;96886.34;5072703;28;20037;-67
2023/09/19 01:33:59;;;;;;;0.10;0.10;;;;;;;16.55;80.61;96886.56;5072237;28;20416;-68
2023/09/19 01:36:29;;;;;;;0.43;0.43;;;;;;;16.53;80.60;96895.72;5062385;28;20072;-68
2023/09/19 01:39:00;;;;;;;0.47;0.47;;;;;;;16.53;80.74;96890.34;5058902;28;20119;-68
2023/09/19 01:41:36;;;;;;;0.40;0.40;;;;;;;16.55;80.49;96897.34;5055170;28;20132;-67
2023/09/19 01:44:07;;;;;;;0.50;0.50;;;;;;;16.52;80.73;96896.78;5067849;28;20033;-67
2023/09/19 01:46:40;;;;;;;0.50;0.50;;;;;;;16.51;80.58;96895.16;5067904;28;20504;-68
2023/09/19 01:49:16;;;;;;;0.50;0.50;;;;;;;16.51;80.63;96888.94;5058846;28;20033;-68
2023/09/19 01:51:52;;;;;;;0.38;0.35;;;;;;;16.48;80.87;96894.84;5069322;28;20045;-68
2023/09/19 01:54:27;;;;;;;0.50;0.50;;;;;;;16.48;80.70;96898.38;5062586;28;20045;-69
2023/09/19 01:57:01;;;;;;;0.50;0.50;;;;;;;16.47;81.06;96899.44;5058618;28;20095;-69
2023/09/19 01:59:35;;;;;;;0.40;0.40;;;;;;;16.47;80.82;96899.44;5067378;28;20056;-69
2023/09/19 02:02:04;;;;;;;0.45;0.45;;;;;;;16.41;81.11;96900.41;5070759;28;20071;-68
2023/09/19 02:04:34;;;;;;;0.50;0.50;;;;;;;16.46;81.08;96913.97;5056289;28;20404;-68
2023/09/19 02:07:05;;;;;;;0.45;0.45;;;;;;;16.42;81.13;96923.59;5063066;28;20044;-68
2023/09/19 02:09:35;;;;;;;0.52;0.52;;;;;;;16.42;81.07;96920.06;5069145;28;20044;-68
2023/09/19 02:12:04;;;;;;;0.40;0.40;;;;;;;16.38;81.27;96918.97;5080274;28;20076;-68
2023/09/19 02:14:32;;;;;;;0.55;0.55;;;;;;;16.38;81.28;96925.16;5068714;28;20044;-68
2023/09/19 02:17:00;;;;;;;0.43;0.43;;;;;;;16.35;81.24;96928.34;5065692;28;20041;-68
2023/09/19 02:19:29;;;;;;;0.43;0.43;;;;;;;16.35;81.27;96925.66;5066290;28;20075;-67
2023/09/19 02:21:57;;;;;;;0.10;0.10;;;;;;;16.33;81.20;96926.94;5069322;28;20565;-68
2023/09/19 02:24:26;;;;;;;0.40;0.40;;;;;;;16.30;81.36;96927.47;5069915;28;20050;-67
2023/09/19 02:26:55;;;;;;;0.50;0.50;;;;;;;16.29;81.41;96920.44;5061033;28;20066;-68
2023/09/19 02:29:24;;;;;;;0.57;0.57;;;;;;;16.28;81.31;96919.63;5060461;28;20573;-68
2023/09/19 02:31:52;;;;;;;0.50;0.50;;;;;;;16.31;81.04;96937.16;5063035;28;20037;-68
2023/09/19 02:34:20;;;;;;;0.45;0.45;;;;;;;16.32;80.95;96931.53;5067698;28;20098;-68
2023/09/19 02:36:49;;;;;;;0.45;0.45;;;;;;;16.34;80.57;96932.09;5054863;28;20155;-68
2023/09/19 02:39:17;;;;;;;0.38;0.38;;;;;;;16.36;80.66;96943.44;5083455;28;20052;-68
2023/09/19 02:41:46;;;;;;;0.40;0.40;;;;;;;16.38;80.52;96940.50;5059015;28;20055;-68
2023/09/19 02:44:14;;;;;;;0.55;0.55;;;;;;;16.39;80.51;96948.34;5063901;28;20039;-68
2023/09/19 02:46:42;;;;;;;0.40;0.40;;;;;;;16.37;80.53;96945.09;5059444;28;20556;-68
2023/09/19 02:49:10;;;;;;;0.40;0.40;;;;;;;16.37;80.40;96947.78;5068746;28;20039;-68
2023/09/19 02:51:38;;;;;;;0.38;0.38;;;;;;;16.37;80.46;96947.78;5068456;28;20055;-68
2023/09/19 02:54:08;;;;;;;0.45;0.45;;;;;;;16.39;80.30;96942.97;5069420;28;20044;-68
2023/09/19 02:56:36;;;;;;;0.30;0.30;;;;;;;16.39;80.07;96947.53;5069013;28;20086;-68
2023/09/19 02:59:05;;;;;;;0.10;0.10;;;;;;;16.37;80.10;96945.09;5062706;28;20499;-68
2023/09/19 03:01:33;;;;;;;0.40;0.40;;;;;;;16.37;80.06;96955.03;5067657;28;20040;-67
2023/09/19 03:04:02;;;;;;;0.57;0.57;;;;;;;16.38;80.16;96962.06;5073114;28;20056;-68
2023/09/19 03:06:30;;;;;;;0.50;0.50;;;;;;;16.46;80.07;96962.44;5063033;28;20131;-68
2023/09/19 03:08:59;;;;;;;0.52;0.52;;;;;;;16.45;79.81;96960.81;5072822;28;20118;-69
2023/09/19 03:11:30;;;;;;;0.50;0.50;;;;;;;16.46;79.82;96961.63;5062243;28;20044;-68
2023/09/19 03:13:58;;;;;;;0.50;0.50;;;;;;;16.53;79.65;96956.88;5071530;28;20058;-68
2023/09/19 03:16:27;;;;;;;0.50;0.50;;;;;;;16.58;79.66;96953.44;5070225;28;20044;-68
2023/09/19 03:18:59;;;;;;;0.47;0.47;;;;;;;16.59;79.58;96968.56;5064388;28;20062;-68
2023/09/19 03:21:30;;;;;;;0.40;0.40;;;;;;;16.61;79.12;96967.22;5075158;28;20068;-68
2023/09/19 03:23:58;;;;;;;0.40;0.40;;;;;;;16.60;79.17;96962.09;5072437;28;20045;-68
2023/09/19 03:26:26;;;;;;;0.57;0.57;;;;;;;16.63;78.98;96973.22;5076873;28;20044;-68
2023/09/19 03:28:56;;;;;;;0.40;0.40;;;;;;;16.63;79.09;96967.81;5064778;28;20511;-68
2023/09/19 03:31:23;;;;;;;0.43;0.43;;;;;;;16.66;78.79;96975.41;5066141;28;20118;-68
2023/09/19 03:33:51;;;;;;;0.50;0.50;;;;;;;16.68;78.57;96967.09;5067734;28;20044;-68
2023/09/19 03:36:19;;;;;;;0.50;0.50;;;;;;;16.76;78.06;96977.44;5074986;28;20119;-68
2023/09/19 03:38:47;;;;;;;0.35;0.35;;;;;;;16.74;78.05;96974.16;5068868;28;20080;-68
2023/09/19 03:41:17;;;;;;;0.40;0.40;;;;;;;16.70;77.87;96967.66;5074416;28;20044;-68
2023/09/19 03:43:46;;;;;;;0.60;0.60;;;;;;;16.69;78.34;96957.94;5068343;28;20362;-68
2023/09/19 03:46:15;;;;;;;0.55;0.55;;;;;;;16.69;78.23;96956.06;5063151;28;20063;-68
2023/09/19 03:48:44;;;;;;;0.50;0.50;;;;;;;16.70;78.17;96957.69;5069148;28;20044;-68
2023/09/19 03:51:12;;;;;;;0.47;0.47;;;;;;;16.69;78.19;96966.03;5069791;28;20051;-68
2023/09/19 03:53:39;;;;;;;0.45;0.45;;;;;;;16.67;78.19;96981.63;5089400;28;20048;-68
2023/09/19 03:56:08;;;;;;;0.40;0.40;;;;;;;16.65;78.56;96989.13;5072012;28;20128;-68
2023/09/19 03:58:39;;;;;;;0.40;0.40;;;;;;;16.67;78.77;96990.53;5054974;28;20036;-68
2023/09/19 04:01:07;;;;;;;0.50;0.50;;;;;;;16.76;78.27;96994.44;5069123;28;20068;-68
2023/09/19 04:03:46;;;;;;;0.43;0.43;;;;;;;16.72;77.98;96995.16;5078135;28;20071;-68
2023/09/19 04:06:14;;;;;;;0.60;0.60;;;;;;;16.67;78.16;96990.53;5071852;28;20041;-68
2023/09/19 04:08:42;;;;;;;0.30;0.30;;;;;;;16.71;78.63;96990.84;5064973;28;20106;-68
2023/09/19 04:11:09;;;;;;;0.50;0.50;;;;;;;16.71;78.18;96997.06;5066538;28;20130;-68
2023/09/19 04:13:37;;;;;;;0.40;0.40;;;;;;;16.75;78.36;97003.56;5069042;28;20059;-68
2023/09/19 04:16:06;;;;;;;0.60;0.60;;;;;;;16.73;78.00;97015.66;5067512;28;20357;-68
2023/09/19 04:18:38;;;;;;;0.40;0.40;;;;;;;16.77;78.13;97016.81;5073473;28;20099;-68
2023/09/19 04:21:06;;;;;;;0.80;0.80;;;;;;;16.80;78.26;97002.84;5072589;28;20044;-68
2023/09/19 04:23:34;;;;;;;0.40;0.40;;;;;;;16.82;78.11;97011.47;5075061;28;20045;-68
2023/09/19 04:26:03;;;;;;;0.43;0.43;;;;;;;16.82;77.46;97008.78;5077762;28;20064;-67
2023/09/19 04:28:33;;;;;;;0.50;0.50;;;;;;;16.81;77.35;97012.56;5073645;28;20135;-67
2023/09/19 04:31:02;;;;;;;0.47;0.47;;;;;;;16.77;77.47;97020.31;5077535;28;20069;-68
2023/09/19 04:33:30;;;;;;;0.30;0.30;;;;;;;16.78;77.51;97019.25;5066998;28;20052;-67
2023/09/19 04:36:00;;;;;;;0.40;0.40;;;;;;;16.74;77.71;97012.72;5073589;28;20040;-68
2023/09/19 04:38:47;;;;;;;0.38;0.38;;;;;;;16.72;77.74;97008.63;5070768;28;20048;-68
2023/09/19 04:41:15;;;;;;;0.50;0.50;;;;;;;16.73;77.87;97008.38;5073063;28;20056;-68
2023/09/19 04:43:43;;;;;;;0.35;0.35;;;;;;;16.68;78.06;97002.13;5073148;28;20043;-68
2023/09/19 04:46:14;;;;;;;0.57;0.57;;;;;;;16.70;78.09;97011.59;5062936;28;20041;-68
2023/09/19 04:48:42;;;;;;;0.32;0.32;;;;;;;16.69;78.01;97015.34;5067847;28;20064;-68
2023/09/19 04:51:11;;;;;;;0.85;0.85;;;;;;;16.67;78.11;97008.56;5063691;28;20423;-68
2023/09/19 04:53:39;;;;;;;0.40;0.40;;;;;;;16.62;78.41;97008.50;5065023;28;20053;-67
2023/09/19 04:56:07;;;;;;;0.40;0.40;;;;;;;16.58;78.47;97007.34;5063702;28;20028;-68
2023/09/19 04:58:35;;;;;;;0.43;0.43;;;;;;;16.58;78.72;97020.81;5065888;28;20040;-67
2023/09/19 05:01:03;;;;;;;0.47;0.47;;;;;;;16.56;78.74;97018.34;5074927;28;20553;-68
2023/09/19 05:03:31;;;;;;;0.45;0.45;;;;;;;16.56;78.88;97017.53;5066812;28;20139;-67
2023/09/19 05:05:59;;;;;;;0.40;0.40;;;;;;;16.52;78.85;97017.22;5073440;28;20033;-68
2023/09/19 05:08:28;;;;;;;0.15;0.15;;;;;;;16.50;78.92;97022.88;5074126;28;20419;-68
2023/09/19 05:10:55;;;;;;;0.60;0.60;;;;;;;16.48;79.04;97025.00;5070333;28;20037;-68
2023/09/19 05:13:24;;;;;;;0.20;0.20;;;;;;;16.47;78.92;97034.13;5063174;28;20416;-68
2023/09/19 05:15:52;;;;;;;0.32;0.32;;;;;;;16.48;79.04;97027.69;5061474;28;20037;-68
2023/09/19 05:18:21;;;;;;;0.50;0.50;;;;;;;16.50;79.02;97028.25;5061634;28;20041;-68
2023/09/19 05:20:49;;;;;;;0.47;0.47;;;;;;;16.52;78.70;97030.69;5061059;28;20110;-68
2023/09/19 05:23:20;;;;;;;0.50;0.50;;;;;;;16.52;78.86;97046.84;5060562;28;20565;-67
2023/09/19 05:25:49;;;;;;;0.40;0.40;;;;;;;16.53;78.52;97035.00;5057584;28;20044;-68
2023/09/19 05:28:17;;;;;;;0.50;0.50;;;;;;;16.56;78.57;97039.09;5062063;28;20045;-67
2023/09/19 05:30:45;;;;;;;0.50;0.50;;;;;;;16.58;78.76;97037.78;5061434;28;20107;-68
2023/09/19 05:33:15;;;;;;;0.50;0.50;;;;;;;16.60;78.42;97030.28;5060949;28;20045;-68
2023/09/19 05:35:43;;;;;;;0.30;0.30;;;;;;;16.55;78.56;97029.38;5060732;28;20049;-68
2023/09/19 05:38:12;;;;;;;0.50;0.50;;;;;;;16.55;78.56;97032.06;5060851;28;20492;-68
2023/09/19 05:40:42;;;;;;;0.60;0.60;;;;;;;16.50;79.00;97044.44;5060687;28;20492;-68
2023/09/19 05:43:11;;;;;;;0.50;0.50;;;;;;;16.49;78.93;97058.97;5061114;28;20129;-68
2023/09/19 05:45:40;;;;;;;0.40;0.40;;;;;;;16.49;78.99;97044.66;5062009;28;20055;-68
2023/09/19 05:48:09;;;;;;;0.40;0.40;;;;;;;16.50;78.78;97049.81;5061071;28;20037;-68
2023/09/19 05:50:37;;;;;;;0.45;0.45;;;;;;;16.58;78.36;97047.75;5061241;28;20062;-68
2023/09/19 05:53:05;;;;;;;0.75;0.75;;;;;;;16.56;78.56;97049.88;5060638;28;20037;-67
2023/09/19 05:55:32;;;;;;;0.55;0.55;;;;;;;16.58;78.62;97056.66;5060625;28;20045;-68
2023/09/19 05:58:00;;;;;;;0.88;0.88;;;;;;;16.60;78.62;97067.19;5060568;28;20029;-68
2023/09/19 06:00:29;;;;;;;0.10;0.10;;;;;;;16.59;78.36;97058.28;5060848;28;20444;-68
2023/09/19 06:02:58;;;;;;;0.60;0.60;;;;;;;16.61;78.67;97060.75;5067647;28;20041;-67
2023/09/19 06:05:27;;;;;;;0.47;0.47;;;;;;;16.66;78.17;97052.75;5060346;28;20051;-68
2023/09/19 06:07:55;;;;;;;0.40;0.40;;;;;;;16.69;78.02;97047.69;5060298;28;20029;-68
2023/09/19 06:10:23;;;;;;;0.50;0.50;;;;;;;16.70;78.31;97052.03;5067886;28;20040;-68
2023/09/19 06:12:51;;;;;;;0.45;0.45;;;;;;;16.69;77.97;97053.09;5063808;28;20037;-68
2023/09/19 06:15:21;;;;;;;0.40;0.40;;;;;;;16.69;77.81;97058.47;5059435;28;20055;-68
2023/09/19 06:17:50;;;;;;;0.40;0.40;;;;;;;16.71;78.08;97060.94;5056249;28;20064;-68
2023/09/19 06:20:19;;;;;;;0.52;0.52;;;;;;;16.73;77.59;97058.78;5056300;28;20041;-68
2023/09/19 06:22:47;;;;;;;0.60;0.60;;;;;;;16.75;77.93;97059.34;5058202;28;20048;-67
2023/09/19 06:25:19;;;;;;;0.45;0.45;;;;;;;16.80;77.37;97067.53;5064528;28;20098;-68
2023/09/19 06:27:47;;;;;;;0.47;0.47;;;;;;;16.76;77.67;97067.19;5063886;28;20144;-67
2023/09/19 06:30:17;;;;;;;0.65;0.65;;;;;;;16.79;77.38;97057.81;5062192;28;20043;-68
2023/09/19 06:32:45;;;;;;;0.10;0.10;;;;;;;16.81;77.63;97066.47;5061075;28;20455;-68
2023/09/19 06:35:15;;;;;;;0.43;0.43;;;;;;;16.79;77.69;97065.91;5059258;28;20356;-68
2023/09/19 06:37:43;;;;;;;0.50;0.50;;;;;;;16.83;77.05;97067.84;5060595;28;20047;-68
2023/09/19 06:40:13;;;;;;;0.47;0.47;;;;;;;16.86;76.72;97071.94;5061366;28;20044;-68
2023/09/19 06:42:42;;;;;;;0.40;0.40;;;;;;;16.86;76.67;97072.75;5060791;28;20055;-68
2023/09/19 06:45:11;;;;;;;0.55;0.55;;;;;;;16.87;76.43;97071.69;5059061;28;20044;-68
2023/09/19 06:47:39;;;;;;;0.45;0.45;;;;;;;16.85;75.90;97073.81;5059539;28;20040;-68
2023/09/19 06:50:13;;;;;;;0.45;0.45;;;;;;;16.84;75.91;97074.88;5059598;28;20045;-68
2023/09/19 06:52:42;;;;;;;0.50;0.50;;;;;;;16.94;75.75;97081.47;5060473;28;20090;-68
2023/09/19 06:55:13;;;;;;;0.40;0.40;;;;;;;17.04;75.66;97095.91;5055595;28;20086;-68
2023/09/19 06:57:43;;;;;;;0.50;0.50;;;;;;;17.14;73.43;97092.53;5055803;28;20123;-68
2023/09/19 07:00:18;;;;;;;0.70;0.70;;;;;;;17.21;72.93;97098.59;5057844;28;20117;-67
2023/09/19 07:02:45;;;;;;;0.38;0.38;;;;;;;17.23;71.19;97108.03;5061281;28;20095;-67
2023/09/19 07:05:14;;;;;;;0.43;0.43;;;;;;;17.17;69.97;97106.34;5055844;28;20055;-67
2023/09/19 07:07:43;;;;;;;0.70;0.70;;;;;;;17.16;69.97;97118.19;5060276;28;20040;-68
2023/09/19 07:10:13;;;;;;;0.50;0.50;;;;;;;17.13;69.42;97121.38;5065479;28;20044;-68
2023/09/19 07:12:42;;;;;;;0.50;0.50;;;;;;;17.15;69.66;97119.25;5056535;28;20091;-68
2023/09/19 07:15:10;;;;;;;0.50;0.50;;;;;;;17.20;69.73;97130.13;5062722;28;20072;-68
2023/09/19 07:17:37;;;;;;;0.30;0.30;;;;;;;17.28;69.97;97130.78;5055668;28;20052;-68
2023/09/19 07:20:07;;;;;;;0.52;0.52;;;;;;;17.37;68.97;97130.09;5062515;28;20047;-68
2023/09/19 07:22:36;;;;;;;0.40;0.40;;;;;;;17.40;68.28;97134.19;5054670;28;20068;-68
2023/09/19 07:25:06;;;;;;;0.50;0.50;;;;;;;17.51;68.06;97125.97;5058537;28;20408;-68
2023/09/19 07:27:33;;;;;;;0.68;0.68;;;;;;;17.67;66.99;97135.09;5058767;28;20041;-68
2023/09/19 07:30:01;;;;;;;0.45;0.45;;;;;;;17.67;66.50;97127.00;5056138;28;20040;-68
2023/09/19 07:32:29;;;;;;;0.55;0.55;;;;;;;17.78;65.64;97131.47;5062171;28;20040;-68
2023/09/19 07:34:56;;;;;;;0.30;0.30;;;;;;;17.93;65.83;97136.25;5056278;28;20727;-68
2023/09/19 07:37:25;;;;;;;0.43;0.43;;;;;;;17.98;65.14;97137.09;5059051;28;20120;-68
2023/09/19 07:39:54;;;;;;;0.30;0.30;;;;;;;18.06;64.57;97140.44;5055235;28;20051;-68
2023/09/19 07:42:23;;;;;;;0.52;0.52;;;;;;;18.07;63.91;97134.75;5062570;28;20235;-68
2023/09/19 07:44:51;;;;;;;0.77;0.77;;;;;;;18.04;63.64;97137.16;5058116;28;20034;-68
2023/09/19 07:47:18;;;;;;;0.50;0.50;;;;;;;18.05;63.61;97131.53;5060237;28;20096;-68
2023/09/19 07:49:47;;;;;;;0.50;0.50;;;;;;;18.03;62.98;97135.53;5058400;28;20049;-68
2023/09/19 07:52:15;;;;;;;0.35;0.35;;;;;;;17.99;60.62;97146.03;5058775;28;20056;-68
2023/09/19 07:54:43;;;;;;;0.65;0.65;;;;;;;17.89;59.48;97157.53;5060239;28;20158;-68
2023/09/19 07:57:11;;;;;;;0.40;0.40;;;;;;;17.95;59.73;97166.50;5061635;28;20048;-68
2023/09/19 07:59:42;;;;;;;0.30;0.30;;;;;;;17.90;59.38;97166.44;5065433;28;20051;-68
2023/09/19 08:02:15;;;;;;;0.43;0.43;;;;;;;17.78;60.92;97174.66;5063127;28;20099;-68
2023/09/19 08:04:46;;;;;;;0.22;0.22;;;;;;;17.73;61.02;97181.88;5062631;28;20400;-67
2023/09/19 08:07:14;;;;;;;0.45;0.45;;;;;;;17.72;61.20;97181.06;5062852;28;20045;-68
2023/09/19 08:09:46;;;;;;;0.50;0.50;;;;;;;17.63;60.93;97193.38;5065470;28;20036;-68
2023/09/19 08:12:14;;;;;;;;;;;;;;;17.59;61.22;97193.00;5062656;28;20080;-68
2023/09/19 08:14:43;;;;;;;0.45;0.45;;;;;;;17.67;61.11;97207.16;5064944;28;19920;-68
2023/09/19 08:17:11;;;;;;;0.60;0.60;;;;;;;17.64;61.02;97194.19;5061441;28;20049;-68
2023/09/19 08:19:41;;;;;;;0.40;0.40;;;;;;;17.63;61.37;97198.78;5063767;28;20049;-67
2023/09/19 08:22:10;;;;;;;0.50;0.50;;;;;;;17.63;61.18;97201.47;5055315;28;20531;-67
2023/09/19 08:24:38;;;;;;;0.57;0.57;;;;;;;17.78;61.37;97212.47;5063713;28;20585;-68
2023/09/19 08:27:09;;;;;;;0.68;0.68;;;;;;;17.74;61.34;97208.66;5065542;28;20124;-68
2023/09/19 08:29:37;;;;;;;0.73;0.73;;;;;;;17.83;61.12;97220.63;5059724;28;20055;-68
2023/09/19 08:32:06;;;;;;;0.50;0.50;;;;;;;17.91;61.03;97212.09;5065597;28;20049;-67
2023/09/19 08:34:38;;;;;;;0.43;0.43;;;;;;;17.90;60.54;97196.97;5059004;28;20052;-67
2023/09/19 08:37:06;;;;;;;0.50;0.50;;;;;;;17.90;60.80;97221.25;5065454;28;20041;-67
2023/09/19 08:39:35;;;;;;;0.52;0.52;;;;;;;18.03;60.58;97221.97;5058307;28;20064;-67
2023/09/19 08:42:03;;;;;;;0.40;0.40;;;;;;;18.19;59.74;97224.59;5065650;28;20124;-68
2023/09/19 08:44:31;;;;;;;0.40;0.40;;;;;;;18.26;58.42;97222.53;5065350;28;20045;-68
2023/09/19 08:47:09;;;;;;;0.10;0.10;;;;;;;18.34;58.20;97232.06;5065046;28;20407;-67
2023/09/19 08:49:43;;;;;;;0.28;0.28;;;;;;;18.37;57.46;97234.28;5064031;28;20118;-67
2023/09/19 08:52:18;;;;;;;0.30;0.30;;;;;;;18.28;57.53;97225.78;5061044;28;20044;-67
2023/09/19 08:54:46;;;;;;;0.38;0.38;;;;;;;18.39;58.06;97239.41;5063135;28;20048;-67
2023/09/19 08:57:21;;;;;;;0.32;0.32;;;;;;;18.50;57.30;97223.03;5061892;28;20072;-67
2023/09/19 08:59:49;;;;;;;0.50;0.50;;;;;;;18.21;57.44;97240.56;5062648;28;20046;-67
2023/09/19 09:02:19;;;;;;;0.38;0.38;;;;;;;18.12;57.80;97231.25;5060431;28;20048;-67
2023/09/19 09:04:48;;;;;;;0.30;0.30;;;;;;;18.08;58.07;97235.53;5063182;28;20049;-67
2023/09/19 09:07:17;;;;;;;0.50;0.50;;;;;;;18.10;58.49;97236.91;5061072;28;20570;-67
2023/09/19 09:09:44;;;;;;;0.50;0.50;;;;;;;18.20;58.10;97242.44;5061862;28;20048;-68
2023/09/19 09:12:13;;;;;;;0.50;0.50;;;;;;;18.15;57.02;97234.28;5061536;28;20049;-67
2023/09/19 09:14:41;;;;;;;0.50;0.50;;;;;;;18.13;56.66;97235.59;5062818;28;20041;-67
2023/09/19 09:17:09;;;;;;;0.40;0.40;;;;;;;18.13;56.76;97239.13;5061299;28;20041;-68
2023/09/19 09:19:38;;;;;;;0.40;0.40;;;;;;;18.32;56.84;97237.72;5062399;28;20447;-68
2023/09/19 09:22:08;;;;;;;0.40;0.40;;;;;;;18.32;56.35;97240.44;5068193;28;20044;-68
2023/09/19 09:24:37;;;;;;;0.40;0.40;;;;;;;18.26;55.88;97251.44;5061954;28;20393;-67
2023/09/19 09:27:08;;;;;;;0.10;0.10;;;;;;;18.27;56.52;97247.66;5060244;28;20539;-67
2023/09/19 09:29:46;;;;;;;0.68;0.68;;;;;;;18.20;57.02;97255.13;5061918;28;20569;-67
2023/09/19 09:32:19;;;;;;;0.30;0.30;;;;;;;18.28;57.19;97243.88;5064618;28;20052;-68
2023/09/19 09:34:50;;;;;;;0.50;0.50;;;;;;;18.33;57.21;97250.16;5057872;28;20068;-67
2023/09/19 09:37:19;;;;;;;0.43;0.43;;;;;;;18.30;57.63;97245.25;5064602;28;20042;-68
2023/09/19 09:39:53;;;;;;;0.40;0.40;;;;;;;18.36;57.53;97248.84;5056917;28;20049;-68
2023/09/19 09:42:32;;;;;;;0.38;0.38;;;;;;;18.37;56.64;97244.28;5064336;28;20559;-68
2023/09/19 09:45:14;;;;;;;0.28;0.28;;;;;;;18.37;56.44;97253.19;5056737;28;20098;-67
2023/09/19 09:47:55;;;;;;;0.43;0.43;;;;;;;18.49;56.15;97244.91;5052765;28;20033;-68
2023/09/19 09:50:37;;;;;;;0.50;0.50;;;;;;;18.54;55.48;97245.81;5061079;28;20072;-67
2023/09/19 09:53:07;;;;;;;0.30;0.30;;;;;;;18.45;54.54;97238.41;5056880;28;20504;-66
2023/09/19 09:56:05;;;;;;;0.40;0.40;;;;;;;18.43;54.33;97245.94;5062134;28;20222;-68
2023/09/19 09:58:35;;;;;;;0.65;0.65;;;;;;;18.53;54.40;97238.75;5072381;28;20051;-68
2023/09/19 10:01:08;;;;;;;0.40;0.40;;;;;;;18.65;54.63;97244.88;5061239;28;20586;-66
2023/09/19 10:03:41;;;;;;;0.40;0.40;;;;;;;18.71;54.42;97243.03;5060148;28;20061;-67
2023/09/19 10:06:25;;;;;;;0.43;0.43;;;;;;;18.69;53.55;97243.28;5063534;28;20041;-66
2023/09/19 10:09:05;;;;;;;0.40;0.40;;;;;;;18.64;54.22;97247.84;5057327;28;20033;-66
2023/09/19 10:11:33;;;;;;;0.45;0.45;;;;;;;18.59;54.07;97248.59;5060258;28;20036;-66
2023/09/19 10:14:06;;;;;;;0.47;0.47;;;;;;;18.77;54.88;97252.84;5060272;28;20037;-66
2023/09/19 10:16:36;;;;;;;0.45;0.45;;;;;;;18.83;54.01;97251.00;5061629;28;20044;-67
2023/09/19 10:19:08;;;;;;;0.50;0.50;;;;;;;19.01;53.38;97243.31;5059248;28;20408;-67
2023/09/19 10:21:39;;;;;;;0.40;0.40;;;;;;;19.03;52.71;97243.06;5061009;28;20049;-66
2023/09/19 10:24:08;;;;;;;0.47;0.47;;;;;;;19.18;52.95;97240.50;5059973;28;20112;-67
2023/09/19 10:26:37;;;;;;;0.38;0.38;;;;;;;19.28;52.67;97242.47;5060522;28;20405;-66
2023/09/19 10:29:09;;;;;;;0.30;0.30;;;;;;;19.25;53.28;97246.50;5060232;28;20052;-67
2023/09/19 10:31:40;;;;;;;0.30;0.30;;;;;;;19.33;52.84;97237.91;5060186;28;20149;-67
2023/09/19 10:34:10;;;;;;;0.43;0.43;;;;;;;19.43;52.77;97234.47;5060146;28;20068;-67
2023/09/19 10:36:42;;;;;;;0.30;0.30;;;;;;;19.60;52.52;97246.00;5060451;28;20535;-67
2023/09/19 10:39:11;;;;;;;0.50;0.50;;;;;;;19.55;52.49;97237.00;5052104;28;20040;-69
2023/09/19 10:41:41;;;;;;;0.50;0.50;;;;;;;19.35;52.50;97246.59;5056452;28;20504;-67
2023/09/19 10:44:09;;;;;;;0.40;0.40;;;;;;;19.14;52.34;97249.38;5058530;28;20037;-69
2023/09/19 10:46:38;;;;;;;0.60;0.60;;;;;;;19.22;51.60;97254.31;5059143;28;20042;-67
2023/09/19 10:49:06;;;;;;;0.50;0.50;;;;;;;19.21;51.05;97242.69;5061289;28;20096;-69
2023/09/19 10:51:43;;;;;;;0.50;0.50;;;;;;;19.32;50.98;97240.88;5056674;28;20052;-66
2023/09/19 10:54:13;;;;;;;0.40;0.40;;;;;;;19.26;52.01;97231.91;5062929;28;20549;-67
2023/09/19 10:56:46;;;;;;;0.52;0.52;;;;;;;19.47;50.98;97223.94;5055761;28;20044;-67
2023/09/19 10:59:18;;;;;;;0.40;0.40;;;;;;;19.34;49.24;97234.13;5062921;28;20098;-67
2023/09/19 11:01:48;;;;;;;0.47;0.47;;;;;;;19.44;48.75;97247.75;5055096;28;20045;-69
2023/09/19 11:04:28;;;;;;;0.40;0.40;;;;;;;19.52;47.53;97245.66;5062759;28;20518;-67
2023/09/19 11:07:08;;;;;;;0.40;0.40;;;;;;;19.63;47.69;97226.50;5061477;28;20045;-67
2023/09/19 11:09:47;;;;;;;0.30;0.30;;;;;;;19.66;46.93;97239.53;5062953;28;20685;-67
2023/09/19 11:12:47;;;;;;;0.50;0.50;;;;;;;19.51;47.90;97246.75;5061490;28;20053;-67
2023/09/19 11:15:48;;;;;;;0.30;0.30;;;;;;;19.57;47.50;97232.16;5055786;28;20048;-68
2023/09/19 11:18:57;;;;;;;0.60;0.60;;;;;;;19.78;48.10;97237.44;5058716;28;20128;-67
2023/09/19 11:21:56;;;;;;;0.32;0.32;;;;;;;19.83;47.76;97225.81;5049282;28;20076;-67
2023/09/19 11:24:38;;;;;;;0.30;0.30;;;;;;;19.90;48.32;97223.69;5053970;28;20111;-67
2023/09/19 11:27:13;;;;;;;0.30;0.30;;;;;;;19.70;48.59;97237.94;5057999;28;20064;-67
2023/09/19 11:29:41;;;;;;;0.30;0.30;;;;;;;19.66;48.94;97226.00;5059690;28;20056;-67
2023/09/19 11:32:09;;;;;;;0.30;0.30;;;;;;;19.66;49.11;97225.16;5066514;28;20050;-69
2023/09/19 11:34:50;;;;;;;0.50;0.50;;;;;;;20.06;48.91;97219.16;5060957;28;20125;-67
2023/09/19 11:38:10;;;;;;;0.30;0.30;;;;;;;20.56;47.90;97217.75;5066625;28;20044;-67
2023/09/19 11:40:40;;;;;;;0.35;0.35;;;;;;;20.56;47.44;97229.38;5064506;28;20040;-67
2023/09/19 11:43:33;;;;;;;0.20;0.20;;;;;;;20.26;47.86;97227.34;5063316;28;20511;-68
2023/09/19 11:46:05;;;;;;;0.43;0.43;;;;;;;20.07;48.84;97234.31;5057937;28;20116;-67
2023/09/19 11:48:34;;;;;;;;;;;;;;;20.08;49.21;97223.22;5060922;28;20051;-67
2023/09/19 11:51:07;;;;;;;0.35;0.35;;;;;;;19.91;48.93;97233.44;5071038;28;19921;-67